Terminal Aerodrome Forecast
Issued by NWS

Home | Current Version | Previous Version | Text Only | Print | Product List | Glossary On
Versions: 1 2 3 4 5 6 7 8 9 10 11 12 13 14 15 16 17
908
FTUS44 KBMX 191722
TAFTOI
TAF
KTOI 191722Z 1918/2018 25006KT P6SM SHRA VCTS SCT035CB BKN050
      TEMPO 1918/1922 2SM TSRA BKN035CB
     FM200200 00000KT P6SM SKC
     FM200600 00000KT 3SM BR SCT250=

USA.gov is the U.S. government's official web portal to all federal, state and local government web resources and services.